Time;durP1;ratioP1;P1;durP2;ratioP2;P2;SDS_P1;SDS_P2;PMS_P1;PMS_P2;Temp;Humidity;BMP_temperature;BMP_pressure;BME280_temperature;BME280_humidity;BME280_pressure;Samples;Min_cycle;Max_cycle;Signal;HPM_P1;HPM_P2
2023/07/23 00:04:41;;;;;;;1999.90;999.90;;;;;;;;;;6711047;88;20789;-77
2023/07/23 00:14:42;;;;;;;1999.90;999.90;;;;;;;;;;6704021;88;20223;-78
2023/07/23 00:24:43;;;;;;;1999.90;999.90;;;;;;;;;;6711847;88;20181;-78
2023/07/23 00:34:44;;;;;;;1999.90;999.90;;;;;;;;;;6704688;88;20198;-78
2023/07/23 00:44:45;;;;;;;1999.90;999.90;;;;;;;;;;6708485;88;20245;-78
2023/07/23 00:54:46;;;;;;;1999.90;999.90;;;;;;;;;;6707078;88;20214;-77
2023/07/23 01:04:48;;;;;;;1999.90;999.90;;;;;;;;;;6704447;88;20673;-77
2023/07/23 01:25:30;;;;;;;1999.90;999.90;;;;;;;;;;6721129;88;20177;-80
2023/07/23 01:35:31;;;;;;;1999.90;999.90;;;;;;;;;;6724424;88;20228;-80
2023/07/23 01:45:33;;;;;;;1999.90;999.90;;;;;;;;;;6724614;88;20296;-79
2023/07/23 01:55:34;;;;;;;1999.90;999.90;;;;;;;;;;6720921;88;20204;-79
2023/07/23 02:05:37;;;;;;;1999.90;999.90;;;;;;;;;;6723454;88;20211;-80
2023/07/23 02:15:38;;;;;;;1999.90;999.90;;;;;;;;;;6719402;88;20238;-80
2023/07/23 02:25:41;;;;;;;1999.90;999.90;;;;;;;;;;6724717;88;20598;-80
2023/07/23 02:35:43;;;;;;;1999.90;999.90;;;;;;;;;;6725173;88;20209;-79
2023/07/23 02:45:44;;;;;;;1999.90;999.90;;;;;;;;;;6720530;88;20239;-80
2023/07/23 02:55:45;;;;;;;1999.90;999.90;;;;;;;;;;6724828;88;20688;-79
2023/07/23 03:05:46;;;;;;;1999.90;999.90;;;;;;;;;;6722529;88;20197;-80
2023/07/23 03:15:47;;;;;;;1999.90;999.90;;;;;;;;;;6728259;88;20238;-80
2023/07/23 03:25:48;;;;;;;1999.90;999.90;;;;;;;;;;6727439;88;20178;-79
2023/07/23 03:35:49;;;;;;;1999.90;999.90;;;;;;;;;;6724280;88;20661;-80
2023/07/23 03:45:50;;;;;;;1999.90;999.90;;;;;;;;;;6726372;88;20182;-80
2023/07/23 03:55:51;;;;;;;1999.90;999.90;;;;;;;;;;6719647;88;20263;-80
2023/07/23 04:05:52;;;;;;;1999.90;999.90;;;;;;;;;;6719640;88;20703;-80
2023/07/23 04:15:53;;;;;;;1999.90;999.90;;;;;;;;;;6723441;88;20768;-79
2023/07/23 04:25:54;;;;;;;1999.90;999.90;;;;;;;;;;6722860;88;20224;-79
2023/07/23 04:35:55;;;;;;;1999.90;999.90;;;;;;;;;;6723158;88;20613;-79
2023/07/23 04:45:56;;;;;;;1999.90;999.90;;;;;;;;;;6718215;88;20227;-79
2023/07/23 04:55:59;;;;;;;1999.90;999.90;;;;;;;;;;6726830;88;20214;-80
2023/07/23 05:06:02;;;;;;;1999.90;999.90;;;;;;;;;;6726040;88;20350;-80
2023/07/23 05:16:03;;;;;;;1999.90;999.90;;;;;;;;;;6726631;88;20229;-80
2023/07/23 05:26:04;;;;;;;1999.90;999.90;;;;;;;;;;6725574;88;20256;-80
2023/07/23 05:36:05;;;;;;;1999.90;999.90;;;;;;;;;;6724856;88;20221;-80
2023/07/23 05:46:08;;;;;;;1999.90;999.90;;;;;;;;;;6722542;88;20186;-80
2023/07/23 05:56:09;;;;;;;1999.90;999.90;;;;;;;;;;6724904;88;20213;-79
2023/07/23 06:06:10;;;;;;;1999.90;999.90;;;;;;;;;;6725084;88;20252;-80
2023/07/23 06:16:11;;;;;;;1999.90;999.90;;;;;;;;;;6728533;88;20243;-80
2023/07/23 06:26:12;;;;;;;1999.90;999.90;;;;;;;;;;6725412;88;20199;-80
2023/07/23 06:36:13;;;;;;;1999.90;999.90;;;;;;;;;;6726012;88;20226;-79
2023/07/23 06:46:18;;;;;;;1999.90;999.90;;;;;;;;;;6721743;88;20229;-80
2023/07/23 06:56:19;;;;;;;1999.90;999.90;;;;;;;;;;6729771;88;20189;-80
2023/07/23 07:06:20;;;;;;;1999.90;999.90;;;;;;;;;;6725866;88;20318;-80
2023/07/23 07:16:21;;;;;;;1999.90;999.90;;;;;;;;;;6722605;77;20418;-77
2023/07/23 07:26:22;;;;;;;1999.90;999.90;;;;;;;;;;6724592;88;20193;-79
2023/07/23 07:36:23;;;;;;;1999.90;999.90;;;;;;;;;;6717215;88;20212;-81
2023/07/23 07:46:24;;;;;;;1999.90;999.90;;;;;;;;;;6716768;88;20197;-77
2023/07/23 07:56:26;;;;;;;1999.90;999.90;;;;;;;;;;6722350;88;20196;-77
2023/07/23 08:06:27;;;;;;;1999.90;999.90;;;;;;;;;;6714318;88;20852;-76
2023/07/23 08:16:28;;;;;;;1999.90;999.90;;;;;;;;;;6725502;88;20337;-76
2023/07/23 08:26:30;;;;;;;1999.90;999.90;;;;;;;;;;6717002;88;20243;-76
2023/07/23 08:36:31;;;;;;;1999.90;999.90;;;;;;;;;;6714560;88;20235;-76
2023/07/23 08:46:32;;;;;;;1999.90;999.90;;;;;;;;;;6707313;88;20279;-76
2023/07/23 08:56:34;;;;;;;1999.90;999.90;;;;;;;;;;6717524;88;20213;-76
2023/07/23 09:06:35;;;;;;;1999.90;999.90;;;;;;;;;;6715430;88;20208;-76
2023/07/23 09:16:38;;;;;;;1999.90;999.90;;;;;;;;;;6716027;88;20190;-74
2023/07/23 09:26:39;;;;;;;1999.90;999.90;;;;;;;;;;6715524;88;20673;-75
2023/07/23 09:36:40;;;;;;;1999.90;999.90;;;;;;;;;;6712595;88;20731;-76
2023/07/23 09:46:45;;;;;;;1999.90;999.90;;;;;;;;;;6713081;88;20247;-75
2023/07/23 09:56:46;;;;;;;;;;;;;;;;;;6715711;88;20186;-76
2023/07/23 10:06:50;;;;;;;1999.90;999.90;;;;;;;;;;6710008;88;20487;-76
2023/07/23 10:16:53;;;;;;;1999.90;999.90;;;;;;;;;;6722484;88;20773;-76
2023/07/23 10:26:54;;;;;;;1999.90;999.90;;;;;;;;;;6712209;88;20227;-75
2023/07/23 10:37:14;;;;;;;1999.90;999.90;;;;;;;;;;6716421;88;20173;-74
2023/07/23 10:47:29;;;;;;;1999.90;999.90;;;;;;;;;;6713550;88;20258;-74
2023/07/23 10:57:31;;;;;;;1999.90;999.90;;;;;;;;;;6718482;88;20217;-74
2023/07/23 11:07:32;;;;;;;1999.90;999.90;;;;;;;;;;6725088;88;20224;-75
2023/07/23 11:17:34;;;;;;;1999.90;999.90;;;;;;;;;;6716436;88;20198;-75
2023/07/23 11:27:35;;;;;;;1999.90;999.90;;;;;;;;;;6711404;88;20304;-74
2023/07/23 11:37:36;;;;;;;1999.90;999.90;;;;;;;;;;6721053;88;20234;-75
2023/07/23 11:47:50;;;;;;;1999.90;999.90;;;;;;;;;;6717034;88;20243;-76
2023/07/23 11:57:54;;;;;;;1999.90;999.90;;;;;;;;;;6711818;88;20211;-76
2023/07/23 12:07:56;;;;;;;1999.90;999.90;;;;;;;;;;6718971;88;20174;-75
2023/07/23 12:17:57;;;;;;;1999.90;999.90;;;;;;;;;;6730125;88;20613;-75
2023/07/23 12:27:58;;;;;;;1999.90;999.90;;;;;;;;;;6719751;88;20207;-76
2023/07/23 12:37:59;;;;;;;1999.90;999.90;;;;;;;;;;6712969;88;20749;-76
2023/07/23 12:48:00;;;;;;;1999.90;999.90;;;;;;;;;;6709777;88;20330;-76
2023/07/23 12:58:01;;;;;;;1999.90;999.90;;;;;;;;;;6719519;88;20230;-77
2023/07/23 13:08:02;;;;;;;1999.90;999.90;;;;;;;;;;6716022;88;20185;-77
2023/07/23 13:28:07;;;;;;;1999.90;999.90;;;;;;;;;;6724724;88;20651;-80
2023/07/23 13:38:09;;;;;;;1999.90;999.90;;;;;;;;;;6723717;88;20265;-79
2023/07/23 13:48:10;;;;;;;1999.90;999.90;;;;;;;;;;6720775;88;20278;-79
2023/07/23 13:58:11;;;;;;;1999.90;999.90;;;;;;;;;;6717226;88;20769;-78
2023/07/23 14:08:12;;;;;;;1999.90;999.90;;;;;;;;;;6717491;88;20298;-78
2023/07/23 14:18:13;;;;;;;1999.90;999.90;;;;;;;;;;6722390;88;20709;-79
2023/07/23 14:28:14;;;;;;;1999.90;999.90;;;;;;;;;;6725794;88;20189;-79
2023/07/23 14:38:15;;;;;;;1999.90;999.90;;;;;;;;;;6725584;88;20189;-79
2023/07/23 14:48:16;;;;;;;1999.90;999.90;;;;;;;;;;6721382;88;20315;-77
2023/07/23 14:58:17;;;;;;;1999.90;999.90;;;;;;;;;;6721740;88;20276;-78
2023/07/23 15:08:18;;;;;;;1999.90;999.90;;;;;;;;;;6715342;88;20194;-79
2023/07/23 15:18:20;;;;;;;1999.90;999.90;;;;;;;;;;6718843;88;20190;-78
2023/07/23 15:28:21;;;;;;;1999.90;999.90;;;;;;;;;;6713980;88;20221;-80
2023/07/23 15:38:22;;;;;;;1999.90;999.90;;;;;;;;;;6719941;88;20182;-78
2023/07/23 15:48:23;;;;;;;1999.90;999.90;;;;;;;;;;6711696;88;20221;-78
2023/07/23 15:58:24;;;;;;;1999.90;999.90;;;;;;;;;;6703345;88;20197;-80
2023/07/23 16:08:25;;;;;;;1999.90;999.90;;;;;;;;;;6704408;88;20203;-80
2023/07/23 16:18:26;;;;;;;1999.90;999.90;;;;;;;;;;6709377;88;20197;-79
2023/07/23 16:28:28;;;;;;;1999.90;999.90;;;;;;;;;;6701208;88;20230;-78
2023/07/23 16:38:30;;;;;;;1999.90;999.90;;;;;;;;;;6704007;88;20210;-78
2023/07/23 16:48:31;;;;;;;1999.90;999.90;;;;;;;;;;6703948;88;20221;-80
2023/07/23 16:58:33;;;;;;;1999.90;999.90;;;;;;;;;;6704064;88;20218;-79
2023/07/23 17:08:34;;;;;;;1999.90;999.90;;;;;;;;;;6700072;88;20190;-78
2023/07/23 17:18:35;;;;;;;1999.90;999.90;;;;;;;;;;6706537;88;20207;-79
2023/07/23 17:28:36;;;;;;;1999.90;999.90;;;;;;;;;;6706075;88;20293;-79
2023/07/23 17:38:37;;;;;;;1999.90;999.90;;;;;;;;;;6705600;88;20294;-79
2023/07/23 17:48:38;;;;;;;1999.90;999.90;;;;;;;;;;6705131;88;20421;-78
2023/07/23 17:58:39;;;;;;;1999.90;999.90;;;;;;;;;;6709269;88;20289;-79
2023/07/23 18:08:41;;;;;;;1999.90;999.90;;;;;;;;;;6705514;88;20727;-79
2023/07/23 18:18:42;;;;;;;1999.90;999.90;;;;;;;;;;6701653;88;20194;-80
2023/07/23 18:28:43;;;;;;;1999.90;999.90;;;;;;;;;;6704793;88;20325;-79
2023/07/23 18:38:44;;;;;;;1999.90;999.90;;;;;;;;;;6704304;88;20343;-79
2023/07/23 18:48:45;;;;;;;1999.90;999.90;;;;;;;;;;6704803;88;20231;-79
2023/07/23 18:58:46;;;;;;;1999.90;999.90;;;;;;;;;;6703171;88;20205;-78
2023/07/23 19:08:50;;;;;;;1999.90;999.90;;;;;;;;;;6700020;88;20214;-78
2023/07/23 19:29:33;;;;;;;1999.90;999.90;;;;;;;;;;6733345;88;20705;-85
2023/07/23 19:39:34;;;;;;;1999.90;999.90;;;;;;;;;;6712863;88;20186;-85
2023/07/23 19:49:35;;;;;;;1999.90;999.90;;;;;;;;;;6712744;88;20349;-84
2023/07/23 19:59:36;;;;;;;1999.90;999.90;;;;;;;;;;6710701;88;20684;-84
2023/07/23 20:09:38;;;;;;;1999.90;999.90;;;;;;;;;;6720808;88;20185;-85
2023/07/23 20:19:39;;;;;;;1999.90;999.90;;;;;;;;;;6726842;88;20318;-83
2023/07/23 20:29:41;;;;;;;1999.90;999.90;;;;;;;;;;6727269;88;20260;-84
2023/07/23 20:39:43;;;;;;;1999.90;999.90;;;;;;;;;;6728091;88;20212;-83
2023/07/23 20:49:44;;;;;;;1999.90;999.90;;;;;;;;;;6725989;88;20290;-83
2023/07/23 21:09:49;;;;;;;1999.90;999.90;;;;;;;;;;6751294;88;20227;-82
2023/07/23 21:30:00;;;;;;;1999.90;999.90;;;;;;;;;;6748166;88;20222;-82
2023/07/23 21:40:01;;;;;;;1999.90;999.90;;;;;;;;;;6744241;88;20213;-83
2023/07/23 21:50:02;;;;;;;1999.90;999.90;;;;;;;;;;6741913;88;20176;-83
2023/07/23 22:00:04;;;;;;;1999.90;999.90;;;;;;;;;;6742593;88;20300;-82
2023/07/23 22:10:06;;;;;;;1999.90;999.90;;;;;;;;;;6744583;88;20199;-85
2023/07/23 22:20:08;;;;;;;1999.90;999.90;;;;;;;;;;6741507;88;20206;-83
2023/07/23 22:30:09;;;;;;;1999.90;999.90;;;;;;;;;;6740516;88;20218;-83
2023/07/23 22:40:10;;;;;;;1999.90;999.90;;;;;;;;;;6744970;88;20646;-82
2023/07/23 22:50:11;;;;;;;1999.90;999.90;;;;;;;;;;6742788;88;20154;-83
2023/07/23 23:00:12;;;;;;;1999.90;999.90;;;;;;;;;;6745200;88;20277;-81
2023/07/23 23:10:14;;;;;;;1999.90;999.90;;;;;;;;;;6743330;88;20805;-81
2023/07/23 23:20:15;;;;;;;1999.90;999.90;;;;;;;;;;6745182;88;20216;-80
2023/07/23 23:30:16;;;;;;;1999.90;999.90;;;;;;;;;;6743552;88;20276;-82
2023/07/23 23:40:17;;;;;;;1999.90;999.90;;;;;;;;;;6747164;88;20188;-82
2023/07/23 23:50:18;;;;;;;1999.90;999.90;;;;;;;;;;6739592;88;20207;-84
